Idlewood, Illinois
Current Conditions -  °F | °C
As of 1:55 PM on Sunday 23 Nov 2014 (Local Time) from KMVN Reporting Station
Overcast Overcast  
Wind Chill: 52°   Ceiling: 1300
Heat Index: 52°   Visibility: 5mi
Dew Point: 46°   Wind: 5mph
Humidity: 82%   Direction: 130°SE
Pressure: 29.48"   Gusts: NA
Location:  38.3147°N, 88.9065°W
Report Text: KMVN 231955Z AUTO 13004KT 5SM OVC013 11/08 A2948 RMK AO1
Loading
Personal Weather Stations






























Interactive Weather Map New forecast layout! Learn more

10-Day Weather Forecast

Advertisements
Track Severe Weather on mobile